sensor_id;sensor_type;location;lat;lon;timestamp;pressure;altitude;pressure_sealevel;temperature;humidity
76990;BME280;65924;47.250;11.332;2022-12-20T00:00:24;95742.14;;;2.13;69.84
76990;BME280;65924;47.250;11.332;2022-12-20T00:00:52;95741.79;;;2.13;70.03
76990;BME280;65924;47.250;11.332;2022-12-20T00:01:22;95741.11;;;2.13;69.83
76990;BME280;65924;47.250;11.332;2022-12-20T00:01:50;95743.80;;;2.13;69.88
76990;BME280;65924;47.250;11.332;2022-12-20T00:02:18;95740.45;;;2.13;69.96
76990;BME280;65924;47.250;11.332;2022-12-20T00:02:45;95744.98;;;2.13;69.91
76990;BME280;65924;47.250;11.332;2022-12-20T00:03:13;95741.45;;;2.13;69.81
76990;BME280;65924;47.250;11.332;2022-12-20T00:03:41;95739.61;;;2.13;69.81
76990;BME280;65924;47.250;11.332;2022-12-20T00:04:10;95740.11;;;2.13;69.86
76990;BME280;65924;47.250;11.332;2022-12-20T00:04:38;95740.61;;;2.13;69.95
76990;BME280;65924;47.250;11.332;2022-12-20T00:05:08;95736.92;;;2.14;69.94
76990;BME280;65924;47.250;11.332;2022-12-20T00:05:36;95739.27;;;2.14;70.25
76990;BME280;65924;47.250;11.332;2022-12-20T00:06:04;95736.91;;;2.14;70.15
76990;BME280;65924;47.250;11.332;2022-12-20T00:06:34;95731.71;;;2.14;70.21
76990;BME280;65924;47.250;11.332;2022-12-20T00:07:02;95732.55;;;2.15;70.32
76990;BME280;65924;47.250;11.332;2022-12-20T00:07:29;95729.20;;;2.14;70.32
76990;BME280;65924;47.250;11.332;2022-12-20T00:07:57;95728.70;;;2.14;70.43
76990;BME280;65924;47.250;11.332;2022-12-20T00:08:24;95730.03;;;2.15;70.35
76990;BME280;65924;47.250;11.332;2022-12-20T00:08:54;95730.38;;;2.15;70.27
76990;BME280;65924;47.250;11.332;2022-12-20T00:09:22;95729.70;;;2.14;70.26
76990;BME280;65924;47.250;11.332;2022-12-20T00:09:51;95730.54;;;2.14;70.16
76990;BME280;65924;47.250;11.332;2022-12-20T00:10:19;95731.55;;;2.13;70.06
76990;BME280;65924;47.250;11.332;2022-12-20T00:10:46;95732.23;;;2.13;69.95
76990;BME280;65924;47.250;11.332;2022-12-20T00:11:14;95735.42;;;2.13;69.94
76990;BME280;65924;47.250;11.332;2022-12-20T00:11:42;95731.73;;;2.13;69.94
76990;BME280;65924;47.250;11.332;2022-12-20T00:12:09;95734.58;;;2.13;69.95
76990;BME280;65924;47.250;11.332;2022-12-20T00:12:37;95730.73;;;2.13;70.02
76990;BME280;65924;47.250;11.332;2022-12-20T00:13:05;95733.91;;;2.13;70.07
76990;BME280;65924;47.250;11.332;2022-12-20T00:13:33;95733.08;;;2.12;69.99
76990;BME280;65924;47.250;11.332;2022-12-20T00:14:00;95726.04;;;2.12;69.88
76990;BME280;65924;47.250;11.332;2022-12-20T00:14:28;95722.35;;;2.12;69.62
76990;BME280;65924;47.250;11.332;2022-12-20T00:14:56;95723.17;;;2.12;69.88
76990;BME280;65924;47.250;11.332;2022-12-20T00:15:23;95718.00;;;2.12;69.69
76990;BME280;65924;47.250;11.332;2022-12-20T00:16:03;95718.48;;;2.12;69.85
76990;BME280;65924;47.250;11.332;2022-12-20T00:16:30;95714.14;;;2.11;69.77
76990;BME280;65924;47.250;11.332;2022-12-20T00:16:58;95714.33;;;2.11;69.88
76990;BME280;65924;47.250;11.332;2022-12-20T00:17:26;95706.54;;;2.05;69.69
76990;BME280;65924;47.250;11.332;2022-12-20T00:17:53;95714.84;;;2.10;69.75
76990;BME280;65924;47.250;11.332;2022-12-20T00:18:21;95714.67;;;2.10;69.60
76990;BME280;65924;47.250;11.332;2022-12-20T00:18:54;95719.03;;;2.10;69.41
76990;BME280;65924;47.250;11.332;2022-12-20T00:19:22;95720.88;;;2.10;69.62
76990;BME280;65924;47.250;11.332;2022-12-20T00:19:49;95723.05;;;2.10;69.58
76990;BME280;65924;47.250;11.332;2022-12-20T00:20:17;95722.89;;;2.10;69.72
76990;BME280;65924;47.250;11.332;2022-12-20T00:20:44;95724.25;;;2.09;69.79
76990;BME280;65924;47.250;11.332;2022-12-20T00:21:13;95723.75;;;2.09;69.76
76990;BME280;65924;47.250;11.332;2022-12-20T00:21:41;95722.92;;;2.08;69.76
76990;BME280;65924;47.250;11.332;2022-12-20T00:22:09;95720.91;;;2.08;69.84
76990;BME280;65924;47.250;11.332;2022-12-20T00:22:36;95721.27;;;2.06;69.85
76990;BME280;65924;47.250;11.332;2022-12-20T00:23:04;95719.60;;;2.06;69.98
76990;BME280;65924;47.250;11.332;2022-12-20T00:23:32;95722.61;;;2.06;70.15
76990;BME280;65924;47.250;11.332;2022-12-20T00:24:00;95717.60;;;2.05;70.13
76990;BME280;65924;47.250;11.332;2022-12-20T00:24:28;95717.60;;;2.05;70.32
76990;BME280;65924;47.250;11.332;2022-12-20T00:24:55;95715.92;;;2.05;70.38
76990;BME280;65924;47.250;11.332;2022-12-20T00:25:23;95715.94;;;2.04;70.50
76990;BME280;65924;47.250;11.332;2022-12-20T00:25:51;95715.80;;;2.03;70.51
76990;BME280;65924;47.250;11.332;2022-12-20T00:26:21;95717.29;;;2.04;70.58
76990;BME280;65924;47.250;11.332;2022-12-20T00:26:49;95716.12;;;2.04;70.46
76990;BME280;65924;47.250;11.332;2022-12-20T00:27:17;95715.27;;;2.04;70.36
76990;BME280;65924;47.250;11.332;2022-12-20T00:27:47;95713.74;;;2.05;70.04
76990;BME280;65924;47.250;11.332;2022-12-20T00:28:15;95714.25;;;2.05;69.96
76990;BME280;65924;47.250;11.332;2022-12-20T00:28:43;95716.93;;;2.05;69.86
76990;BME280;65924;47.250;11.332;2022-12-20T00:29:11;95716.27;;;2.05;69.68
76990;BME280;65924;47.250;11.332;2022-12-20T00:29:40;95719.11;;;2.05;69.78
76990;BME280;65924;47.250;11.332;2022-12-20T00:30:08;95720.77;;;2.06;69.77
76990;BME280;65924;47.250;11.332;2022-12-20T00:30:35;95724.79;;;2.07;69.65
76990;BME280;65924;47.250;11.332;2022-12-20T00:31:04;95723.79;;;2.07;69.52
76990;BME280;65924;47.250;11.332;2022-12-20T00:31:34;95721.97;;;2.05;69.80
76990;BME280;65924;47.250;11.332;2022-12-20T00:32:01;95724.77;;;2.07;69.77
76990;BME280;65924;47.250;11.332;2022-12-20T00:32:29;95721.11;;;2.06;69.89
76990;BME280;65924;47.250;11.332;2022-12-20T00:32:57;95721.75;;;2.08;70.10
76990;BME280;65924;47.250;11.332;2022-12-20T00:33:25;95721.06;;;2.08;70.21
76990;BME280;65924;47.250;11.332;2022-12-20T00:33:54;95722.89;;;2.09;70.22
76990;BME280;65924;47.250;11.332;2022-12-20T00:34:22;95719.19;;;2.11;70.42
76990;BME280;65924;47.250;11.332;2022-12-20T00:34:50;95714.67;;;2.10;70.55
76990;BME280;65924;47.250;11.332;2022-12-20T00:35:17;95714.33;;;2.11;70.69
76990;BME280;65924;47.250;11.332;2022-12-20T00:35:45;95710.31;;;2.10;70.76
76990;BME280;65924;47.250;11.332;2022-12-20T00:36:13;95710.80;;;2.10;70.74
76990;BME280;65924;47.250;11.332;2022-12-20T00:36:40;95712.15;;;2.10;70.71
76990;BME280;65924;47.250;11.332;2022-12-20T00:37:08;95709.31;;;2.09;70.83
76990;BME280;65924;47.250;11.332;2022-12-20T00:37:35;95712.98;;;2.11;70.69
76990;BME280;65924;47.250;11.332;2022-12-20T00:38:03;95714.31;;;2.11;70.57
76990;BME280;65924;47.250;11.332;2022-12-20T00:38:31;95719.17;;;2.11;70.69
76990;BME280;65924;47.250;11.332;2022-12-20T00:39:01;95718.33;;;2.12;70.73
76990;BME280;65924;47.250;11.332;2022-12-20T00:39:28;95720.50;;;2.12;70.62
76990;BME280;65924;47.250;11.332;2022-12-20T00:39:56;95719.48;;;2.13;70.72
76990;BME280;65924;47.250;11.332;2022-12-20T00:40:24;95720.98;;;2.14;70.70
76990;BME280;65924;47.250;11.332;2022-12-20T00:41:01;95720.96;;;2.15;70.80
76990;BME280;65924;47.250;11.332;2022-12-20T00:41:32;95716.59;;;2.15;70.77
76990;BME280;65924;47.250;11.332;2022-12-20T00:42:00;95716.59;;;2.16;70.77
76990;BME280;65924;47.250;11.332;2022-12-20T00:42:27;95712.06;;;2.15;70.78
76990;BME280;65924;47.250;11.332;2022-12-20T00:42:55;95708.71;;;2.16;70.82
76990;BME280;65924;47.250;11.332;2022-12-20T00:43:22;95711.55;;;2.16;70.83
76990;BME280;65924;47.250;11.332;2022-12-20T00:43:51;95709.36;;;2.16;70.71
76990;BME280;65924;47.250;11.332;2022-12-20T00:44:19;95705.52;;;2.16;70.76
76990;BME280;65924;47.250;11.332;2022-12-20T00:44:46;95707.86;;;2.17;70.70
76990;BME280;65924;47.250;11.332;2022-12-20T00:45:14;95708.35;;;2.17;70.72
76990;BME280;65924;47.250;11.332;2022-12-20T00:45:41;95711.52;;;2.18;70.65
76990;BME280;65924;47.250;11.332;2022-12-20T00:46:11;95713.03;;;2.18;70.70
76990;BME280;65924;47.250;11.332;2022-12-20T00:46:39;95711.52;;;2.18;70.79
76990;BME280;65924;47.250;11.332;2022-12-20T00:47:06;95713.52;;;2.18;70.70
76990;BME280;65924;47.250;11.332;2022-12-20T00:47:34;95714.86;;;2.19;70.55
76990;BME280;65924;47.250;11.332;2022-12-20T00:48:01;95717.04;;;2.18;70.49
76990;BME280;65924;47.250;11.332;2022-12-20T00:48:30;95715.19;;;2.19;70.60
76990;BME280;65924;47.250;11.332;2022-12-20T00:48:59;95709.65;;;2.19;70.67
76990;BME280;65924;47.250;11.332;2022-12-20T00:49:27;95711.17;;;2.18;70.77
76990;BME280;65924;47.250;11.332;2022-12-20T00:49:54;95705.81;;;2.18;70.85
76990;BME280;65924;47.250;11.332;2022-12-20T00:50:22;95706.15;;;2.18;70.84
76990;BME280;65924;47.250;11.332;2022-12-20T00:50:50;95705.68;;;2.17;70.71
76990;BME280;65924;47.250;11.332;2022-12-20T00:51:20;95702.16;;;2.17;70.71
76990;BME280;65924;47.250;11.332;2022-12-20T00:51:49;95701.50;;;2.16;70.77
76990;BME280;65924;47.250;11.332;2022-12-20T00:52:16;95701.16;;;2.16;70.64
76990;BME280;65924;47.250;11.332;2022-12-20T00:52:44;95702.00;;;2.16;70.55
76990;BME280;65924;47.250;11.332;2022-12-20T00:53:11;95695.66;;;2.13;70.38
76990;BME280;65924;47.250;11.332;2022-12-20T00:53:39;95703.00;;;2.16;70.31
76990;BME280;65924;47.250;11.332;2022-12-20T00:54:07;95705.85;;;2.17;70.26
76990;BME280;65924;47.250;11.332;2022-12-20T00:54:35;95705.80;;;2.18;70.40
76990;BME280;65924;47.250;11.332;2022-12-20T00:55:03;95711.34;;;2.18;70.31
76990;BME280;65924;47.250;11.332;2022-12-20T00:55:30;95712.35;;;2.18;70.38
76990;BME280;65924;47.250;11.332;2022-12-20T00:55:58;95712.18;;;2.18;70.28
76990;BME280;65924;47.250;11.332;2022-12-20T00:56:26;95715.52;;;2.19;70.26
76990;BME280;65924;47.250;11.332;2022-12-20T00:56:56;95716.54;;;2.19;70.28
76990;BME280;65924;47.250;11.332;2022-12-20T00:57:23;95715.36;;;2.20;70.37
76990;BME280;65924;47.250;11.332;2022-12-20T00:57:51;95718.36;;;2.20;70.34
76990;BME280;65924;47.250;11.332;2022-12-20T00:58:19;95717.38;;;2.20;70.34
76990;BME280;65924;47.250;11.332;2022-12-20T00:58:47;95714.01;;;2.20;70.22
76990;BME280;65924;47.250;11.332;2022-12-20T00:59:14;95715.86;;;2.19;70.18
76990;BME280;65924;47.250;11.332;2022-12-20T00:59:42;95717.54;;;2.19;70.14
76990;BME280;65924;47.250;11.332;2022-12-20T01:00:09;95715.52;;;2.19;70.14
76990;BME280;65924;47.250;11.332;2022-12-20T01:00:38;95717.88;;;2.19;70.01
76990;BME280;65924;47.250;11.332;2022-12-20T01:01:18;95716.04;;;2.18;69.99
76990;BME280;65924;47.250;11.332;2022-12-20T01:01:48;95712.88;;;2.17;70.12
76990;BME280;65924;47.250;11.332;2022-12-20T01:02:16;95714.58;;;2.16;70.19
76990;BME280;65924;47.250;11.332;2022-12-20T01:02:44;95712.25;;;2.15;70.05
76990;BME280;65924;47.250;11.332;2022-12-20T01:03:11;95714.09;;;2.15;70.25
76990;BME280;65924;47.250;11.332;2022-12-20T01:03:39;95713.91;;;2.15;70.37
76990;BME280;65924;47.250;11.332;2022-12-20T01:04:06;95713.59;;;2.15;70.52
76990;BME280;65924;47.250;11.332;2022-12-20T01:04:34;95708.05;;;2.15;70.58
76990;BME280;65924;47.250;11.332;2022-12-20T01:05:02;95712.08;;;2.15;70.64
76990;BME280;65924;47.250;11.332;2022-12-20T01:05:31;95715.59;;;2.15;70.62
76990;BME280;65924;47.250;11.332;2022-12-20T01:06:01;95713.58;;;2.16;70.60
76990;BME280;65924;47.250;11.332;2022-12-20T01:06:29;95714.41;;;2.16;70.49
76990;BME280;65924;47.250;11.332;2022-12-20T01:06:57;95717.10;;;2.16;70.46
76990;BME280;65924;47.250;11.332;2022-12-20T01:07:24;95719.77;;;2.16;70.32
76990;BME280;65924;47.250;11.332;2022-12-20T01:07:52;95721.45;;;2.16;70.20
76990;BME280;65924;47.250;11.332;2022-12-20T01:08:21;95720.44;;;2.16;70.13
76990;BME280;65924;47.250;11.332;2022-12-20T01:08:52;95717.63;;;2.14;69.86
76990;BME280;65924;47.250;11.332;2022-12-20T01:09:20;95723.30;;;2.16;69.83
76990;BME280;65924;47.250;11.332;2022-12-20T01:09:48;95721.46;;;2.15;69.89
76990;BME280;65924;47.250;11.332;2022-12-20T01:10:15;95722.14;;;2.15;69.91
76990;BME280;65924;47.250;11.332;2022-12-20T01:10:44;95717.95;;;2.14;69.93
76990;BME280;65924;47.250;11.332;2022-12-20T01:11:17;95716.30;;;2.13;69.95
76990;BME280;65924;47.250;11.332;2022-12-20T01:11:46;95710.92;;;2.13;69.93
76990;BME280;65924;47.250;11.332;2022-12-20T01:12:13;95710.09;;;2.13;70.09
76990;BME280;65924;47.250;11.332;2022-12-20T01:12:41;95710.42;;;2.12;70.24
76990;BME280;65924;47.250;11.332;2022-12-20T01:13:08;95709.25;;;2.13;70.24
76990;BME280;65924;47.250;11.332;2022-12-20T01:13:39;95707.73;;;2.14;70.22
76990;BME280;65924;47.250;11.332;2022-12-20T01:14:12;95707.90;;;2.14;69.97
76990;BME280;65924;47.250;11.332;2022-12-20T01:14:40;95704.55;;;2.14;70.02
76990;BME280;65924;47.250;11.332;2022-12-20T01:15:09;95702.23;;;2.11;69.87
76990;BME280;65924;47.250;11.332;2022-12-20T01:15:37;95705.06;;;2.13;69.84
76990;BME280;65924;47.250;11.332;2022-12-20T01:16:10;95701.88;;;2.13;69.78
76990;BME280;65924;47.250;11.332;2022-12-20T01:16:47;95698.19;;;2.12;69.85
76990;BME280;65924;47.250;11.332;2022-12-20T01:17:15;95698.91;;;2.10;69.95
76990;BME280;65924;47.250;11.332;2022-12-20T01:17:42;95699.08;;;2.10;69.85
76990;BME280;65924;47.250;11.332;2022-12-20T01:18:10;95696.56;;;2.09;69.90
76990;BME280;65924;47.250;11.332;2022-12-20T01:18:38;95692.21;;;2.09;69.84
76990;BME280;65924;47.250;11.332;2022-12-20T01:19:08;95697.08;;;2.08;69.85
76990;BME280;65924;47.250;11.332;2022-12-20T01:19:36;95694.23;;;2.08;69.69
76990;BME280;65924;47.250;11.332;2022-12-20T01:20:05;95695.26;;;2.08;69.78
76990;BME280;65924;47.250;11.332;2022-12-20T01:20:33;95693.91;;;2.08;69.75
76990;BME280;65924;47.250;11.332;2022-12-20T01:21:08;95696.77;;;2.07;69.72
76990;BME280;65924;47.250;11.332;2022-12-20T01:21:36;95691.75;;;2.07;69.73
76990;BME280;65924;47.250;11.332;2022-12-20T01:22:09;95694.45;;;2.06;69.57
76990;BME280;65924;47.250;11.332;2022-12-20T01:22:36;95693.13;;;2.04;69.71
76990;BME280;65924;47.250;11.332;2022-12-20T01:23:04;95693.80;;;2.04;69.85
76990;BME280;65924;47.250;11.332;2022-12-20T01:23:32;95694.48;;;2.04;69.72
76990;BME280;65924;47.250;11.332;2022-12-20T01:24:00;95695.66;;;2.04;69.75
76990;BME280;65924;47.250;11.332;2022-12-20T01:24:27;95694.17;;;2.03;69.77
76990;BME280;65924;47.250;11.332;2022-12-20T01:24:55;95693.83;;;2.02;69.96
76990;BME280;65924;47.250;11.332;2022-12-20T01:25:22;95689.83;;;2.01;69.82
76990;BME280;65924;47.250;11.332;2022-12-20T01:25:50;95695.50;;;2.03;69.91
76990;BME280;65924;47.250;11.332;2022-12-20T01:26:20;95697.16;;;2.04;70.03
76990;BME280;65924;47.250;11.332;2022-12-20T01:26:51;95695.30;;;2.04;70.01
76990;BME280;65924;47.250;11.332;2022-12-20T01:27:19;95696.48;;;2.04;69.92
76990;BME280;65924;47.250;11.332;2022-12-20T01:27:46;95694.13;;;2.04;70.05
76990;BME280;65924;47.250;11.332;2022-12-20T01:28:14;95693.80;;;2.05;70.01
76990;BME280;65924;47.250;11.332;2022-12-20T01:28:43;95698.30;;;2.06;70.09
76990;BME280;65924;47.250;11.332;2022-12-20T01:29:12;95695.11;;;2.06;70.11
76990;BME280;65924;47.250;11.332;2022-12-20T01:29:40;95695.79;;;2.06;70.19
76990;BME280;65924;47.250;11.332;2022-12-20T01:30:08;95698.77;;;2.07;70.30
76990;BME280;65924;47.250;11.332;2022-12-20T01:30:39;95696.77;;;2.08;70.21
76990;BME280;65924;47.250;11.332;2022-12-20T01:31:14;95694.06;;;2.08;70.19
76990;BME280;65924;47.250;11.332;2022-12-20T01:31:43;95692.40;;;2.08;70.28
76990;BME280;65924;47.250;11.332;2022-12-20T01:32:10;95696.26;;;2.08;70.29
76990;BME280;65924;47.250;11.332;2022-12-20T01:32:38;95695.26;;;2.07;70.19
76990;BME280;65924;47.250;11.332;2022-12-20T01:33:06;95694.92;;;2.07;70.16
76990;BME280;65924;47.250;11.332;2022-12-20T01:33:34;95694.44;;;2.06;70.17
76990;BME280;65924;47.250;11.332;2022-12-20T01:34:02;95695.61;;;2.06;70.09
76990;BME280;65924;47.250;11.332;2022-12-20T01:34:30;95695.14;;;2.05;69.97
76990;BME280;65924;47.250;11.332;2022-12-20T01:34:58;95692.79;;;2.05;69.81
76990;BME280;65924;47.250;11.332;2022-12-20T01:35:25;95691.96;;;2.04;69.78
76990;BME280;65924;47.250;11.332;2022-12-20T01:36:04;95694.14;;;2.04;69.86
76990;BME280;65924;47.250;11.332;2022-12-20T01:36:34;95696.66;;;2.04;69.65
76990;BME280;65924;47.250;11.332;2022-12-20T01:37:03;95697.02;;;2.01;69.48
76990;BME280;65924;47.250;11.332;2022-12-20T01:37:30;95696.36;;;2.01;69.43
76990;BME280;65924;47.250;11.332;2022-12-20T01:37:58;95696.20;;;2.01;69.44
76990;BME280;65924;47.250;11.332;2022-12-20T01:38:26;95693.23;;;1.98;69.45
76990;BME280;65924;47.250;11.332;2022-12-20T01:39:02;95698.90;;;2.00;69.47
76990;BME280;65924;47.250;11.332;2022-12-20T01:39:30;95697.05;;;1.99;69.57
76990;BME280;65924;47.250;11.332;2022-12-20T01:39:57;95695.44;;;1.96;69.62
76990;BME280;65924;47.250;11.332;2022-12-20T01:40:25;95698.95;;;1.96;69.62
76990;BME280;65924;47.250;11.332;2022-12-20T01:40:54;95694.42;;;1.96;69.70
76990;BME280;65924;47.250;11.332;2022-12-20T01:41:24;95698.95;;;1.96;69.36
76990;BME280;65924;47.250;11.332;2022-12-20T01:41:52;95696.95;;;1.96;69.51
76990;BME280;65924;47.250;11.332;2022-12-20T01:42:19;95698.11;;;1.96;69.33
76990;BME280;65924;47.250;11.332;2022-12-20T01:42:47;95702.48;;;1.96;69.24
76990;BME280;65924;47.250;11.332;2022-12-20T01:43:16;95702.48;;;1.95;69.30
76990;BME280;65924;47.250;11.332;2022-12-20T01:44:53;95698.66;;;1.94;69.29
76990;BME280;65924;47.250;11.332;2022-12-20T01:45:27;95696.15;;;1.93;69.38
76990;BME280;65924;47.250;11.332;2022-12-20T01:45:55;95695.85;;;1.92;69.30
76990;BME280;65924;47.250;11.332;2022-12-20T01:46:25;95691.83;;;1.91;69.36
76990;BME280;65924;47.250;11.332;2022-12-20T01:46:53;95691.02;;;1.90;69.53
76990;BME280;65924;47.250;11.332;2022-12-20T01:47:22;95687.49;;;1.90;69.60
76990;BME280;65924;47.250;11.332;2022-12-20T01:47:51;95686.15;;;1.90;69.69
76990;BME280;65924;47.250;11.332;2022-12-20T01:48:22;95687.84;;;1.89;69.70
76990;BME280;65924;47.250;11.332;2022-12-20T01:49:46;95688.70;;;1.87;69.60
76990;BME280;65924;47.250;11.332;2022-12-20T01:50:15;95686.39;;;1.85;69.41
76990;BME280;65924;47.250;11.332;2022-12-20T01:50:44;95689.91;;;1.84;69.49
76990;BME280;65924;47.250;11.332;2022-12-20T01:51:12;95692.92;;;1.84;69.63
76990;BME280;65924;47.250;11.332;2022-12-20T01:51:51;95689.77;;;1.83;69.62
76990;BME280;65924;47.250;11.332;2022-12-20T01:52:40;95692.59;;;1.84;69.39
76990;BME280;65924;47.250;11.332;2022-12-20T01:53:09;95693.98;;;1.81;69.35
76990;BME280;65924;47.250;11.332;2022-12-20T01:53:37;95696.02;;;1.80;69.46
76990;BME280;65924;47.250;11.332;2022-12-20T01:54:10;95692.34;;;1.79;69.54
76990;BME280;65924;47.250;11.332;2022-12-20T01:54:47;95690.02;;;1.78;69.59
76990;BME280;65924;47.250;11.332;2022-12-20T01:55:22;95688.37;;;1.76;69.81
76990;BME280;65924;47.250;11.332;2022-12-20T01:55:52;95682.75;;;1.70;70.17
76990;BME280;65924;47.250;11.332;2022-12-20T01:56:20;95686.06;;;1.73;70.12
76990;BME280;65924;47.250;11.332;2022-12-20T01:56:51;95687.06;;;1.73;70.12
76990;BME280;65924;47.250;11.332;2022-12-20T01:57:30;95683.89;;;1.73;70.10
76990;BME280;65924;47.250;11.332;2022-12-20T01:58:02;95685.23;;;1.73;70.17
76990;BME280;65924;47.250;11.332;2022-12-20T01:58:32;95684.74;;;1.72;70.16
76990;BME280;65924;47.250;11.332;2022-12-20T01:59:03;95685.23;;;1.73;70.05
76990;BME280;65924;47.250;11.332;2022-12-20T01:59:32;95685.39;;;1.73;70.05
76990;BME280;65924;47.250;11.332;2022-12-20T02:00:04;95685.22;;;1.73;70.14
76990;BME280;65924;47.250;11.332;2022-12-20T02:00:41;95684.23;;;1.72;70.17
76990;BME280;65924;47.250;11.332;2022-12-20T02:01:08;95681.40;;;1.72;70.10
76990;BME280;65924;47.250;11.332;2022-12-20T02:01:37;95679.89;;;1.72;70.16
76990;BME280;65924;47.250;11.332;2022-12-20T02:02:08;95681.88;;;1.72;69.98
76990;BME280;65924;47.250;11.332;2022-12-20T02:02:37;95675.52;;;1.72;70.05
76990;BME280;65924;47.250;11.332;2022-12-20T02:03:07;95682.23;;;1.72;70.03
76990;BME280;65924;47.250;11.332;2022-12-20T02:03:36;95675.70;;;1.72;70.00
76990;BME280;65924;47.250;11.332;2022-12-20T02:04:03;95679.89;;;1.72;70.01
76990;BME280;65924;47.250;11.332;2022-12-20T02:04:32;95677.21;;;1.71;70.13
76990;BME280;65924;47.250;11.332;2022-12-20T02:04:59;95677.05;;;1.71;70.17
76990;BME280;65924;47.250;11.332;2022-12-20T02:05:36;95674.54;;;1.71;70.17
76990;BME280;65924;47.250;11.332;2022-12-20T02:06:19;95676.55;;;1.71;70.22
76990;BME280;65924;47.250;11.332;2022-12-20T02:06:47;95672.39;;;1.69;70.06
76990;BME280;65924;47.250;11.332;2022-12-20T02:07:22;95676.08;;;1.70;70.17
76990;BME280;65924;47.250;11.332;2022-12-20T02:07:53;95675.21;;;1.70;70.20
76990;BME280;65924;47.250;11.332;2022-12-20T02:08:23;95672.39;;;1.70;70.27
76990;BME280;65924;47.250;11.332;2022-12-20T02:08:53;95671.73;;;1.69;70.33
76990;BME280;65924;47.250;11.332;2022-12-20T02:09:22;95673.54;;;1.71;70.30
76990;BME280;65924;47.250;11.332;2022-12-20T02:09:50;95674.04;;;1.71;70.36
76990;BME280;65924;47.250;11.332;2022-12-20T02:10:22;95674.83;;;1.73;70.39
76990;BME280;65924;47.250;11.332;2022-12-20T02:11:12;95675.52;;;1.72;70.40
76990;BME280;65924;47.250;11.332;2022-12-20T02:11:48;95677.18;;;1.73;70.57
76990;BME280;65924;47.250;11.332;2022-12-20T02:12:23;95680.05;;;1.72;70.67
76990;BME280;65924;47.250;11.332;2022-12-20T02:13:00;95681.05;;;1.72;70.66
76990;BME280;65924;47.250;11.332;2022-12-20T02:15:53;95687.55;;;1.63;70.82
76990;BME280;65924;47.250;11.332;2022-12-20T02:16:24;95687.11;;;1.59;71.02
76990;BME280;65924;47.250;11.332;2022-12-20T02:18:45;95686.21;;;1.51;71.39
76990;BME280;65924;47.250;11.332;2022-12-20T02:19:53;95685.23;;;1.50;71.45
76990;BME280;65924;47.250;11.332;2022-12-20T02:21:13;95682.96;;;1.45;71.66
76990;BME280;65924;47.250;11.332;2022-12-20T02:21:51;95685.30;;;1.45;71.51
76990;BME280;65924;47.250;11.332;2022-12-20T02:22:59;95681.79;;;1.45;71.53
76990;BME280;65924;47.250;11.332;2022-12-20T02:27:41;95675.60;;;1.43;71.67
76990;BME280;65924;47.250;11.332;2022-12-20T02:30:18;95666.63;;;1.38;71.45
76990;BME280;65924;47.250;11.332;2022-12-20T02:30:48;95666.81;;;1.38;71.49
76990;BME280;65924;47.250;11.332;2022-12-20T02:31:26;95668.34;;;1.37;71.54
76990;BME280;65924;47.250;11.332;2022-12-20T02:32:25;95665.15;;;1.36;71.63
76990;BME280;65924;47.250;11.332;2022-12-20T02:33:04;95663.52;;;1.35;71.73
76990;BME280;65924;47.250;11.332;2022-12-20T02:33:33;95663.33;;;1.35;71.43
76990;BME280;65924;47.250;11.332;2022-12-20T02:34:02;95660.81;;;1.35;71.46
76990;BME280;65924;47.250;11.332;2022-12-20T02:34:32;95662.81;;;1.36;71.43
76990;BME280;65924;47.250;11.332;2022-12-20T02:35:04;95664.33;;;1.36;71.46
76990;BME280;65924;47.250;11.332;2022-12-20T02:35:35;95661.79;;;1.37;71.54
76990;BME280;65924;47.250;11.332;2022-12-20T02:36:04;95665.65;;;1.37;71.33
76990;BME280;65924;47.250;11.332;2022-12-20T02:36:31;95661.96;;;1.37;71.29
76990;BME280;65924;47.250;11.332;2022-12-20T02:36:59;95662.63;;;1.37;71.14
76990;BME280;65924;47.250;11.332;2022-12-20T02:37:27;95662.78;;;1.38;71.24
76990;BME280;65924;47.250;11.332;2022-12-20T02:37:57;95665.13;;;1.38;71.24
76990;BME280;65924;47.250;11.332;2022-12-20T02:38:35;95663.93;;;1.39;71.40
76990;BME280;65924;47.250;11.332;2022-12-20T02:39:04;95662.60;;;1.39;71.55
76990;BME280;65924;47.250;11.332;2022-12-20T02:39:33;95661.11;;;1.38;71.60
76990;BME280;65924;47.250;11.332;2022-12-20T02:40:03;95660.13;;;1.36;71.54
76990;BME280;65924;47.250;11.332;2022-12-20T02:40:36;95661.91;;;1.40;71.51
76990;BME280;65924;47.250;11.332;2022-12-20T02:41:44;95657.55;;;1.40;71.32
76990;BME280;65924;47.250;11.332;2022-12-20T02:42:20;95655.23;;;1.40;71.31
76990;BME280;65924;47.250;11.332;2022-12-20T02:42:58;95651.38;;;1.38;71.36
76990;BME280;65924;47.250;11.332;2022-12-20T02:43:28;95654.72;;;1.39;71.60
76990;BME280;65924;47.250;11.332;2022-12-20T02:44:15;95650.39;;;1.38;71.49
76990;BME280;65924;47.250;11.332;2022-12-20T02:45:08;95650.89;;;1.38;71.33
76990;BME280;65924;47.250;11.332;2022-12-20T02:45:42;95649.39;;;1.38;71.24
76990;BME280;65924;47.250;11.332;2022-12-20T02:46:11;95652.91;;;1.38;71.30
76990;BME280;65924;47.250;11.332;2022-12-20T02:46:40;95651.40;;;1.38;71.23
76990;BME280;65924;47.250;11.332;2022-12-20T02:47:12;95652.55;;;1.39;71.20
76990;BME280;65924;47.250;11.332;2022-12-20T02:47:54;95649.70;;;1.39;70.90
76990;BME280;65924;47.250;11.332;2022-12-20T02:48:27;95649.70;;;1.39;70.71
76990;BME280;65924;47.250;11.332;2022-12-20T02:48:59;95652.88;;;1.39;70.73
76990;BME280;65924;47.250;11.332;2022-12-20T02:49:31;95644.16;;;1.39;70.90
76990;BME280;65924;47.250;11.332;2022-12-20T02:50:02;95644.50;;;1.39;70.96
76990;BME280;65924;47.250;11.332;2022-12-20T02:50:35;95643.49;;;1.39;71.07
76990;BME280;65924;47.250;11.332;2022-12-20T02:51:05;95639.17;;;1.37;71.10
76990;BME280;65924;47.250;11.332;2022-12-20T02:51:35;95637.31;;;1.39;71.32
76990;BME280;65924;47.250;11.332;2022-12-20T02:52:04;95635.13;;;1.39;71.29
76990;BME280;65924;47.250;11.332;2022-12-20T02:52:33;95635.29;;;1.39;71.17
76990;BME280;65924;47.250;11.332;2022-12-20T02:53:02;95635.63;;;1.40;71.23